Time;durP1;ratioP1;P1;durP2;ratioP2;P2;SDS_P1;SDS_P2;PMS_P1;PMS_P2;Temp;Humidity;BMP_temperature;BMP_pressure;BME280_temperature;BME280_humidity;BME280_pressure;Samples;Min_cycle;Max_cycle;Signal;HPM_P1;HPM_P2
2022/03/31 00:01:32;;;;;;;13.38;5.20;;;;;;;14.12;37.99;93898.63;4954760;28;20383;-66
2022/03/31 00:03:57;;;;;;;12.13;5.13;;;;;;;14.18;37.80;93883.78;4956979;28;20523;-66
2022/03/31 00:06:22;;;;;;;11.02;4.50;;;;;;;14.20;37.52;93878.31;4956086;28;20236;-66
2022/03/31 00:08:48;;;;;;;10.90;4.80;;;;;;;14.20;37.43;93878.31;4957550;28;20233;-66
2022/03/31 00:11:13;;;;;;;10.77;4.78;;;;;;;14.08;37.96;93876.22;4960728;28;20680;-66
2022/03/31 00:13:41;;;;;;;11.23;5.38;;;;;;;14.19;37.58;93895.16;4961123;28;20215;-66
2022/03/31 00:16:06;;;;;;;16.13;5.82;;;;;;;14.11;37.59;93891.72;4962593;28;20223;-66
2022/03/31 00:18:33;;;;;;;14.73;5.35;;;;;;;14.12;37.75;93908.38;4987722;28;20220;-66
2022/03/31 00:20:59;;;;;;;16.00;5.63;;;;;;;14.15;38.05;93907.97;4959766;28;20235;-66
2022/03/31 00:23:25;;;;;;;13.50;5.10;;;;;;;14.19;37.19;93900.44;4956539;28;20279;-66
2022/03/31 00:25:50;;;;;;;16.70;5.15;;;;;;;14.16;37.40;93887.63;4962140;28;20286;-66
2022/03/31 00:28:16;;;;;;;16.15;5.88;;;;;;;14.15;37.47;93876.25;4965856;28;20215;-66
2022/03/31 00:30:42;;;;;;;15.27;5.25;;;;;;;14.12;37.69;93869.53;4966767;28;20224;-67
2022/03/31 00:33:08;;;;;;;15.32;5.10;;;;;;;14.19;37.55;93863.44;4991836;28;20231;-66
2022/03/31 00:35:34;;;;;;;11.73;5.00;;;;;;;14.14;37.47;93866.72;4957817;28;20228;-66
2022/03/31 00:37:59;;;;;;;11.85;4.97;;;;;;;14.17;37.57;93871.59;4960895;28;21620;-65
2022/03/31 00:40:25;;;;;;;12.68;4.90;;;;;;;14.16;37.53;93863.84;4964361;28;20634;-66
2022/03/31 00:42:55;;;;;;;15.70;5.88;;;;;;;14.24;37.34;93853.06;4963476;28;20240;-67
2022/03/31 00:45:28;;;;;;;14.52;5.57;;;;;;;14.23;37.29;93857.56;4958651;28;20213;-66
2022/03/31 00:47:55;;;;;;;13.32;5.10;;;;;;;14.20;37.59;93847.38;4946760;28;20235;-66
2022/03/31 00:50:22;;;;;;;13.57;5.47;;;;;;;14.21;37.51;93851.66;4963398;28;20403;-66
2022/03/31 00:52:48;;;;;;;11.68;5.10;;;;;;;14.23;37.50;93841.69;4959650;28;20200;-65
2022/03/31 00:55:16;;;;;;;14.07;4.90;;;;;;;14.23;37.51;93851.47;4960241;28;20231;-65
2022/03/31 00:57:46;;;;;;;12.50;5.10;;;;;;;14.22;37.57;93863.88;4957241;28;20716;-65
2022/03/31 01:00:14;;;;;;;10.73;4.78;;;;;;;14.21;38.03;93851.66;4954335;28;20225;-66
2022/03/31 01:02:43;;;;;;;14.25;4.82;;;;;;;14.19;37.64;93852.88;4957843;28;20287;-65
2022/03/31 01:05:09;;;;;;;13.63;4.72;;;;;;;14.13;37.63;93846.56;4962894;28;20204;-66
2022/03/31 01:07:37;;;;;;;10.85;4.53;;;;;;;13.90;38.39;93857.53;4964536;28;20259;-67
2022/03/31 01:10:04;;;;;;;15.35;5.05;;;;;;;13.90;38.27;93847.75;4958983;28;20255;-66
2022/03/31 01:12:30;;;;;;;16.27;5.18;;;;;;;14.01;38.85;93838.44;4955390;28;20227;-66
2022/03/31 01:15:08;;;;;;;12.32;5.00;;;;;;;14.01;38.36;93827.03;4953133;28;20224;-66
2022/03/31 01:17:35;;;;;;;12.63;5.50;;;;;;;14.05;38.24;93823.78;4953959;28;20230;-67
2022/03/31 01:20:02;;;;;;;15.68;4.53;;;;;;;14.07;38.25;93836.81;4959549;28;20219;-66
2022/03/31 01:22:30;;;;;;;16.20;4.75;;;;;;;14.18;38.16;93830.91;4960834;28;20207;-67
2022/03/31 01:24:58;;;;;;;16.95;5.05;;;;;;;14.10;38.24;93823.19;4959358;28;20421;-66
2022/03/31 01:27:25;;;;;;;13.18;4.78;;;;;;;14.09;38.55;93840.06;4960868;28;20255;-66
2022/03/31 01:29:51;;;;;;;12.40;5.38;;;;;;;14.09;38.28;93827.66;4959094;28;20321;-66
2022/03/31 01:32:17;;;;;;;11.60;4.85;;;;;;;14.02;38.44;93824.19;4960529;28;20204;-66
2022/03/31 01:34:42;;;;;;;15.43;4.78;;;;;;;14.05;38.55;93825.59;4955032;28;20258;-66
2022/03/31 01:37:09;;;;;;;15.27;4.72;;;;;;;14.13;38.40;93833.34;4957345;28;20223;-67
2022/03/31 01:39:35;;;;;;;13.50;4.63;;;;;;;14.08;38.31;93812.78;4960743;28;20232;-67
2022/03/31 01:42:00;;;;;;;14.60;4.78;;;;;;;14.10;38.31;93820.53;4962851;28;20235;-67
2022/03/31 01:44:26;;;;;;;15.25;5.10;;;;;;;14.11;38.69;93824.78;4954186;28;20425;-67
2022/03/31 01:46:51;;;;;;;12.07;5.03;;;;;;;14.06;38.56;93822.78;4956520;28;20215;-67
2022/03/31 01:49:17;;;;;;;16.70;4.60;;;;;;;14.06;38.47;93825.41;4956407;28;20280;-67
2022/03/31 01:51:42;;;;;;;16.67;5.47;;;;;;;14.05;38.71;93822.97;4962228;28;20307;-66
2022/03/31 01:54:08;;;;;;;12.30;4.80;;;;;;;14.01;38.57;93817.28;4957033;28;20236;-66
2022/03/31 01:56:34;;;;;;;13.90;4.68;;;;;;;13.98;38.51;93830.06;4956152;28;20240;-67
2022/03/31 01:58:59;;;;;;;10.60;4.70;;;;;;;13.92;38.81;93822.94;4955633;28;20212;-66
2022/03/31 02:01:25;;;;;;;15.75;5.07;;;;;;;13.97;38.60;93823.97;4961959;28;20227;-66
2022/03/31 02:03:50;;;;;;;13.88;5.28;;;;;;;13.93;38.47;93820.13;4953082;28;20224;-65
2022/03/31 02:06:16;;;;;;;15.75;5.45;;;;;;;13.95;38.43;93810.13;4958582;28;20238;-66
2022/03/31 02:08:41;;;;;;;11.90;4.68;;;;;;;14.03;38.19;93809.13;4963460;28;20227;-67
2022/03/31 02:11:08;;;;;;;13.52;4.88;;;;;;;14.07;38.32;93805.88;4989419;28;20316;-66
2022/03/31 02:13:34;;;;;;;13.85;5.13;;;;;;;14.07;37.86;93795.31;4954784;28;20238;-66
2022/03/31 02:15:59;;;;;;;19.48;4.40;;;;;;;14.02;38.12;93800.41;4957440;28;20235;-66
2022/03/31 02:18:25;;;;;;;14.23;4.82;;;;;;;14.00;37.97;93794.50;4959140;28;20224;-66
2022/03/31 02:20:51;;;;;;;17.38;5.63;;;;;;;14.02;37.95;93797.75;4955121;28;20253;-67
2022/03/31 02:23:16;;;;;;;12.82;4.65;;;;;;;14.02;37.93;93797.75;4957192;28;20244;-66
2022/03/31 02:25:43;;;;;;;16.30;5.43;;;;;;;13.95;37.92;93767.84;4961158;28;20205;-66
2022/03/31 02:28:09;;;;;;;14.48;4.57;;;;;;;13.95;38.22;93778.44;4962068;28;20220;-67
2022/03/31 02:30:35;;;;;;;12.82;4.50;;;;;;;13.97;38.29;93784.31;4957442;28;20228;-65
2022/03/31 02:33:03;;;;;;;15.43;5.00;;;;;;;13.86;37.99;93771.72;4957849;28;20314;-67
2022/03/31 02:35:29;;;;;;;12.32;5.18;;;;;;;13.81;38.12;93782.09;4960572;28;20232;-67
2022/03/31 02:37:55;;;;;;;14.02;4.72;;;;;;;13.63;38.64;93791.41;4955086;28;20288;-66
2022/03/31 02:40:20;;;;;;;10.77;4.38;;;;;;;13.61;38.81;93755.66;4957252;28;20229;-65
2022/03/31 02:42:46;;;;;;;16.92;4.95;;;;;;;13.69;38.83;93776.59;4959072;28;20231;-66
2022/03/31 02:45:11;;;;;;;13.75;4.88;;;;;;;13.69;38.60;93776.59;4960463;28;20228;-66
2022/03/31 02:47:37;;;;;;;16.08;5.47;;;;;;;13.73;38.49;93777.00;4959605;28;20231;-66
2022/03/31 02:50:07;;;;;;;13.20;4.55;;;;;;;13.70;38.88;93775.56;4962021;28;20208;-66
2022/03/31 02:55:28;;;;;;;11.90;4.18;;;;;;;13.70;38.80;93761.56;4965956;28;20235;-66
2022/03/31 02:57:55;;;;;;;14.48;5.55;;;;;;;13.72;38.61;93754.25;4960773;28;20250;-66
2022/03/31 03:00:20;;;;;;;14.77;5.35;;;;;;;13.80;38.74;93762.78;4964310;28;20295;-66
2022/03/31 03:02:46;;;;;;;17.17;5.05;;;;;;;13.77;38.57;93779.03;4963396;28;20319;-65
2022/03/31 03:05:11;;;;;;;13.43;5.10;;;;;;;13.74;38.80;93770.69;4968300;28;20212;-66
2022/03/31 03:07:37;;;;;;;17.50;5.50;;;;;;;13.70;38.66;93770.28;4969434;28;20208;-66
2022/03/31 03:10:03;;;;;;;14.00;4.90;;;;;;;13.69;38.54;93758.09;4968203;28;20221;-67
2022/03/31 03:12:28;;;;;;;14.80;4.95;;;;;;;13.63;38.97;93767.66;4956735;28;20315;-66
2022/03/31 03:14:53;;;;;;;14.63;5.85;;;;;;;13.61;38.78;93767.03;4987175;28;20248;-66
2022/03/31 03:17:19;;;;;;;12.30;4.78;;;;;;;13.63;38.79;93780.84;4958145;28;20264;-65
2022/03/31 03:19:45;;;;;;;14.13;5.50;;;;;;;13.61;38.48;93756.47;4962292;28;20238;-66
2022/03/31 03:22:10;;;;;;;13.10;5.50;;;;;;;13.55;38.73;93770.47;4968982;28;20308;-65
2022/03/31 03:24:36;;;;;;;16.70;5.35;;;;;;;13.61;38.76;93777.59;4969576;28;20228;-65
2022/03/31 03:27:01;;;;;;;12.65;5.05;;;;;;;13.46;39.01;93767.19;4956903;28;20229;-65
2022/03/31 03:29:27;;;;;;;13.57;5.47;;;;;;;13.54;38.56;93768.84;4963630;28;20235;-65
2022/03/31 03:31:53;;;;;;;12.50;5.20;;;;;;;13.38;39.03;93769.22;4968701;28;20223;-65
2022/03/31 03:34:19;;;;;;;13.05;5.38;;;;;;;13.33;39.35;93766.34;4960724;28;20252;-65
2022/03/31 03:36:44;;;;;;;14.25;5.03;;;;;;;13.33;39.25;93758.44;4961522;28;20259;-65
2022/03/31 03:39:11;;;;;;;13.82;5.43;;;;;;;13.39;39.10;93745.25;4962203;28;20314;-65
2022/03/31 03:41:40;;;;;;;15.15;4.82;;;;;;;13.42;39.16;93750.13;4963796;28;20232;-66
2022/03/31 03:44:05;;;;;;;13.48;5.60;;;;;;;13.44;38.61;93739.34;4977437;28;20205;-65
2022/03/31 03:46:31;;;;;;;10.23;4.82;;;;;;;13.43;39.09;93738.53;4965874;28;20625;-65
2022/03/31 03:48:56;;;;;;;16.52;5.85;;;;;;;13.47;38.79;93731.03;4958101;28;20688;-66
2022/03/31 03:51:24;;;;;;;12.52;5.35;;;;;;;13.34;38.86;93752.13;4958200;28;20349;-66
2022/03/31 03:53:53;;;;;;;11.70;5.00;;;;;;;13.23;39.32;93748.22;4964085;28;20293;-66
2022/03/31 03:56:19;;;;;;;9.98;6.05;;;;;;;13.27;39.47;93746.03;4967354;28;20272;-66
2022/03/31 03:58:45;;;;;;;15.68;5.80;;;;;;;13.26;39.18;93745.22;4968125;28;20216;-67
2022/03/31 04:01:11;;;;;;;12.98;5.65;;;;;;;13.24;39.35;93755.94;4960512;28;20236;-65
2022/03/31 04:03:36;;;;;;;13.77;6.10;;;;;;;13.28;39.95;93745.00;4955952;28;20231;-65
2022/03/31 04:06:02;;;;;;;12.65;5.97;;;;;;;13.31;39.41;93749.88;4963748;28;20229;-65
2022/03/31 04:08:27;;;;;;;15.20;5.82;;;;;;;13.23;39.50;93751.69;4961781;28;20336;-65
2022/03/31 04:10:53;;;;;;;15.10;5.68;;;;;;;13.17;39.80;93743.72;4963316;28;20267;-65
2022/03/31 04:13:19;;;;;;;12.50;5.72;;;;;;;13.23;39.57;93738.50;4966201;28;20239;-67
2022/03/31 04:15:44;;;;;;;14.10;6.13;;;;;;;13.23;40.34;93753.47;4967388;28;20252;-66
2022/03/31 04:18:10;;;;;;;13.88;5.50;;;;;;;13.25;39.68;93765.47;4960831;28;20227;-66
2022/03/31 04:20:36;;;;;;;15.40;6.45;;;;;;;13.27;39.74;93788.28;4964741;28;20232;-67
2022/03/31 04:23:01;;;;;;;13.80;5.93;;;;;;;13.31;39.89;93792.13;4954688;28;20228;-66
2022/03/31 04:25:27;;;;;;;15.32;6.10;;;;;;;13.33;39.72;93801.47;4958156;28;20235;-66
2022/03/31 04:27:53;;;;;;;13.20;5.95;;;;;;;13.30;39.75;93798.44;4956305;28;21165;-66
2022/03/31 04:30:21;;;;;;;14.23;5.70;;;;;;;13.27;39.70;93778.53;4961259;28;20228;-66
2022/03/31 04:32:47;;;;;;;12.75;5.95;;;;;;;13.27;39.83;93786.44;4968707;28;20258;-66
2022/03/31 04:35:14;;;;;;;15.65;6.40;;;;;;;13.10;40.19;93772.75;4962761;28;20236;-66
2022/03/31 04:37:39;;;;;;;19.83;9.60;;;;;;;13.12;40.18;93797.09;4964276;28;20208;-66
2022/03/31 04:40:07;;;;;;;20.65;10.52;;;;;;;13.16;40.32;93793.06;4960578;28;20234;-65
2022/03/31 04:42:32;;;;;;;16.88;7.80;;;;;;;13.17;40.96;93788.59;4954387;28;20243;-66
2022/03/31 04:44:58;;;;;;;18.67;8.43;;;;;;;13.17;41.12;93788.59;4946414;28;20220;-66
2022/03/31 04:47:23;;;;;;;22.88;7.97;;;;;;;13.20;41.95;93783.75;4959269;28;20773;-66
2022/03/31 04:49:49;;;;;;;25.02;12.95;;;;;;;13.31;41.32;93756.00;4961462;28;20200;-66
2022/03/31 04:52:14;;;;;;;25.00;10.32;;;;;;;13.23;41.01;93767.53;4964005;28;20245;-66
2022/03/31 04:54:43;;;;;;;23.63;8.30;;;;;;;13.06;41.50;93774.16;4957450;28;20259;-66
2022/03/31 04:57:21;;;;;;;15.98;6.53;;;;;;;13.03;41.21;93782.47;4961245;28;20266;-65
2022/03/31 04:59:47;;;;;;;20.73;6.70;;;;;;;13.02;41.50;93780.84;4954417;28;20232;-65
2022/03/31 05:02:13;;;;;;;12.07;6.43;;;;;;;13.18;41.16;93801.63;4960063;28;20220;-68
2022/03/31 05:04:39;;;;;;;17.25;6.70;;;;;;;13.17;41.20;93799.97;4960383;28;20262;-68
2022/03/31 05:07:05;;;;;;;17.85;6.70;;;;;;;13.29;40.89;93778.34;4965301;28;20910;-68
2022/03/31 05:09:30;;;;;;;14.98;6.70;;;;;;;13.25;41.40;93765.47;4963668;28;20232;-67
2022/03/31 05:11:56;;;;;;;19.40;6.45;;;;;;;13.25;41.27;93752.28;4958460;28;20224;-68
2022/03/31 05:14:21;;;;;;;14.07;6.38;;;;;;;13.17;41.66;93762.22;4961206;28;20225;-68
2022/03/31 05:16:47;;;;;;;18.10;7.03;;;;;;;13.15;41.54;93772.97;4962758;28;20200;-67
2022/03/31 05:19:12;;;;;;;17.95;6.57;;;;;;;13.14;41.67;93779.25;4953704;28;20220;-65
2022/03/31 05:21:38;;;;;;;14.13;6.97;;;;;;;13.19;42.25;93782.13;4951599;28;20236;-66
2022/03/31 05:24:04;;;;;;;23.02;7.32;;;;;;;13.21;41.62;93795.94;4980796;28;20228;-66
2022/03/31 05:26:30;;;;;;;16.52;6.55;;;;;;;13.31;41.69;93797.41;4957713;28;20232;-66
2022/03/31 05:28:55;;;;;;;19.13;6.40;;;;;;;13.25;41.40;93791.06;4956856;28;20201;-67
2022/03/31 05:31:21;;;;;;;16.65;6.13;;;;;;;13.27;42.00;93826.03;4962762;28;20259;-67
2022/03/31 05:33:46;;;;;;;17.63;6.82;;;;;;;13.34;41.41;93811.03;4956470;28;20244;-66
2022/03/31 05:36:12;;;;;;;15.45;6.80;;;;;;;13.40;41.68;93810.25;4961476;28;20228;-66
2022/03/31 05:38:37;;;;;;;19.58;7.18;;;;;;;13.44;41.56;93816.78;4955887;28;20224;-67
2022/03/31 05:41:03;;;;;;;16.85;6.50;;;;;;;13.57;41.23;93826.53;4955539;28;20275;-65
2022/03/31 05:43:29;;;;;;;14.85;6.85;;;;;;;13.58;41.52;93833.47;4959521;28;20235;-65
2022/03/31 05:45:55;;;;;;;19.58;6.70;;;;;;;13.57;41.73;93829.16;4957413;28;20232;-66
2022/03/31 05:48:20;;;;;;;18.52;6.20;;;;;;;13.53;43.01;93827.16;4957034;28;20256;-66
2022/03/31 05:50:46;;;;;;;15.15;6.57;;;;;;;13.49;42.52;93829.34;4958642;28;20228;-65
2022/03/31 05:53:13;;;;;;;20.92;6.47;;;;;;;13.63;44.03;93825.75;4956874;28;20219;-66
2022/03/31 05:55:38;;;;;;;19.92;7.03;;;;;;;13.68;43.75;93810.13;4953598;28;20252;-66
2022/03/31 05:58:04;;;;;;;15.98;6.43;;;;;;;13.66;44.20;93803.41;4964776;28;20224;-66
2022/03/31 06:00:29;;;;;;;19.35;6.65;;;;;;;13.73;44.84;93782.28;4980199;28;20243;-66
2022/03/31 06:02:55;;;;;;;25.73;7.10;;;;;;;13.75;45.23;93769.69;4964697;28;20235;-66
2022/03/31 06:05:21;;;;;;;20.98;6.80;;;;;;;13.89;45.54;93773.97;4952960;28;20302;-66
2022/03/31 06:07:48;;;;;;;21.88;6.00;;;;;;;14.03;46.02;93765.03;4952431;28;20200;-66
2022/03/31 06:10:13;;;;;;;24.02;6.68;;;;;;;14.10;46.13;93768.47;4955176;28;20228;-66
2022/03/31 06:12:39;;;;;;;18.38;6.55;;;;;;;14.13;45.54;93762.78;4959688;28;20235;-66
2022/03/31 06:15:06;;;;;;;21.40;6.95;;;;;;;14.08;46.27;93756.47;4980989;28;20275;-67
2022/03/31 06:17:32;;;;;;;25.58;7.45;;;;;;;14.07;46.77;93741.66;4957570;28;20227;-66
2022/03/31 06:19:57;;;;;;;30.75;7.50;;;;;;;14.25;46.37;93723.34;4957429;28;20208;-66
2022/03/31 06:22:23;;;;;;;23.90;7.28;;;;;;;14.29;46.21;93726.38;4961737;28;20289;-66
2022/03/31 06:24:50;;;;;;;24.98;6.90;;;;;;;14.38;46.36;93751.59;4962592;28;20817;-66
2022/03/31 06:27:16;;;;;;;26.20;6.72;;;;;;;14.48;45.32;93744.03;4961569;28;20224;-66
2022/03/31 06:29:45;;;;;;;27.25;6.70;;;;;;;14.67;45.09;93752.16;4961197;28;20316;-65
2022/03/31 06:32:11;;;;;;;27.63;7.07;;;;;;;14.88;44.22;93788.13;4954102;28;20341;-66
2022/03/31 06:34:37;;;;;;;30.23;7.43;;;;;;;14.87;44.27;93794.44;4954612;28;20196;-67
2022/03/31 06:37:03;;;;;;;29.92;7.18;;;;;;;14.93;44.58;93797.06;4985550;28;20231;-64
2022/03/31 06:39:29;;;;;;;25.38;5.90;;;;;;;15.03;44.48;93815.16;4960498;28;20224;-67
2022/03/31 06:41:54;;;;;;;24.48;7.53;;;;;;;15.16;43.71;93801.09;4956098;28;20280;-67
2022/03/31 06:44:21;;;;;;;27.90;7.00;;;;;;;15.18;43.69;93809.59;4951560;28;20286;-66
2022/03/31 06:46:47;;;;;;;21.20;5.88;;;;;;;15.20;42.81;93804.91;4952986;28;20204;-67
2022/03/31 06:49:13;;;;;;;27.55;6.43;;;;;;;15.18;42.94;93799.00;4954097;28;20229;-67
2022/03/31 06:51:38;;;;;;;21.45;5.93;;;;;;;15.32;43.00;93805.91;4957590;28;20232;-67
2022/03/31 06:54:04;;;;;;;25.50;6.55;;;;;;;15.46;42.39;93803.19;4957711;28;20228;-68
2022/03/31 06:56:31;;;;;;;21.80;6.50;;;;;;;15.38;42.13;93805.06;4958403;28;20302;-67
2022/03/31 06:58:57;;;;;;;32.50;7.55;;;;;;;15.41;42.57;93806.47;4952897;28;20223;-66
2022/03/31 07:01:24;;;;;;;20.20;7.35;;;;;;;15.43;42.64;93807.88;4960691;28;20260;-66
2022/03/31 07:03:51;;;;;;;22.23;8.13;;;;;;;15.34;42.87;93806.50;4957216;28;20228;-67
2022/03/31 07:06:16;;;;;;;23.33;7.13;;;;;;;15.43;42.77;93810.53;4960077;28;20246;-66
2022/03/31 07:08:42;;;;;;;27.90;7.75;;;;;;;15.52;42.35;93810.28;4984810;28;20247;-66
2022/03/31 07:11:09;;;;;;;23.00;6.88;;;;;;;15.46;42.27;93805.84;4962387;28;20204;-66
2022/03/31 07:13:35;;;;;;;24.33;7.57;;;;;;;15.42;42.48;93797.47;4953103;28;20700;-65
2022/03/31 07:16:00;;;;;;;22.15;7.05;;;;;;;15.51;41.81;93793.59;4962809;28;20256;-65
2022/03/31 07:18:26;;;;;;;24.58;7.22;;;;;;;15.52;41.70;93787.25;4956775;28;20221;-67
2022/03/31 07:20:52;;;;;;;26.85;6.45;;;;;;;15.56;41.78;93803.56;4962370;28;20234;-67
2022/03/31 07:23:18;;;;;;;22.90;7.38;;;;;;;15.64;41.78;93787.41;4951785;28;20228;-67
2022/03/31 07:25:44;;;;;;;29.13;7.20;;;;;;;15.81;40.82;93777.13;4957616;28;20251;-67
2022/03/31 07:28:09;;;;;;;25.58;7.05;;;;;;;15.96;40.44;93759.09;4948145;28;20229;-67
2022/03/31 07:30:35;;;;;;;23.48;6.25;;;;;;;16.06;40.24;93770.03;4953778;28;20284;-66
2022/03/31 07:33:03;;;;;;;22.17;7.03;;;;;;;16.10;40.15;93784.47;4950419;28;20594;-66
2022/03/31 07:35:31;;;;;;;17.30;5.85;;;;;;;16.18;40.12;93788.69;4954625;28;20225;-65
2022/03/31 07:37:58;;;;;;;24.67;6.30;;;;;;;16.40;39.56;93793.63;4956843;28;20212;-64
2022/03/31 07:40:25;;;;;;;16.30;6.03;;;;;;;16.54;39.24;93781.84;4961107;28;20322;-67
2022/03/31 07:42:51;;;;;;;24.38;6.57;;;;;;;16.50;39.36;93778.81;4975719;28;20243;-65
2022/03/31 07:45:19;;;;;;;22.85;6.53;;;;;;;16.60;39.22;93773.03;4963967;28;20327;-66
2022/03/31 07:47:45;;;;;;;27.23;6.35;;;;;;;16.62;39.29;93781.56;4966920;28;20250;-66
2022/03/31 07:50:14;;;;;;;24.38;7.00;;;;;;;16.67;38.97;93778.25;4962617;28;20240;-66
2022/03/31 07:52:41;;;;;;;23.05;6.22;;;;;;;16.75;38.81;93780.63;4957600;28;20329;-67
2022/03/31 07:55:08;;;;;;;24.35;7.07;;;;;;;16.69;39.13;93802.75;4966469;28;20552;-67
2022/03/31 07:57:34;;;;;;;23.17;7.00;;;;;;;16.71;39.17;93793.53;4953066;28;20571;-69
2022/03/31 08:00:00;;;;;;;22.15;7.05;;;;;;;16.71;40.01;93785.56;4948878;28;20318;-66
2022/03/31 08:02:26;;;;;;;23.77;6.38;;;;;;;16.85;38.77;93780.16;4961379;28;20247;-67
2022/03/31 08:04:52;;;;;;;22.27;6.63;;;;;;;16.94;38.89;93781.47;4958100;28;20204;-68
2022/03/31 08:07:18;;;;;;;28.15;7.53;;;;;;;17.05;38.55;93759.50;4965820;28;20216;-70
2022/03/31 08:09:44;;;;;;;38.80;8.55;;;;;;;17.24;38.22;93736.41;4964591;28;20225;-68
2022/03/31 08:12:10;;;;;;;21.95;6.25;;;;;;;17.29;37.74;93754.31;4965336;28;20235;-67
2022/03/31 08:14:36;;;;;;;24.70;6.57;;;;;;;17.41;37.77;93776.44;4956645;28;20228;-67
2022/03/31 08:17:02;;;;;;;28.63;7.57;;;;;;;17.53;37.55;93768.50;4992606;28;20214;-67
2022/03/31 08:19:30;;;;;;;22.63;5.88;;;;;;;17.39;37.86;93787.28;4967134;28;20295;-68
2022/03/31 08:21:56;;;;;;;27.60;6.68;;;;;;;17.47;37.25;93775.53;4967219;28;20243;-69
2022/03/31 08:24:23;;;;;;;29.33;6.15;;;;;;;17.58;37.42;93768.66;4961473;28;20228;-67
2022/03/31 08:26:50;;;;;;;23.63;6.88;;;;;;;17.54;37.51;93747.03;4951844;28;20375;-66
2022/03/31 08:29:16;;;;;;;17.40;4.50;;;;;;;17.60;37.19;93747.97;4957946;28;20228;-68
2022/03/31 08:31:42;;;;;;;21.92;5.70;;;;;;;17.71;36.80;93733.09;4963576;28;20241;-67
2022/03/31 08:34:08;;;;;;;22.70;5.35;;;;;;;17.67;37.00;93740.72;4962585;28;20315;-68
2022/03/31 08:36:34;;;;;;;20.00;5.90;;;;;;;17.91;36.87;93719.53;4968617;28;20237;-67
2022/03/31 08:39:00;;;;;;;25.00;6.50;;;;;;;18.07;36.51;93742.81;4959058;28;20232;-67
2022/03/31 08:41:28;;;;;;;19.27;5.57;;;;;;;18.01;36.66;93739.19;4962698;28;20232;-69
2022/03/31 08:43:54;;;;;;;23.15;5.82;;;;;;;18.19;36.02;93726.88;4961174;28;20684;-64
2022/03/31 08:46:20;;;;;;;23.90;6.07;;;;;;;18.32;36.05;93739.16;4952298;28;20224;-64
2022/03/31 08:48:46;;;;;;;20.90;6.38;;;;;;;18.47;35.60;93756.28;4955288;28;20228;-64
2022/03/31 08:51:11;;;;;;;21.02;6.25;;;;;;;18.57;35.39;93738.91;4958037;28;20281;-63
2022/03/31 08:53:37;;;;;;;20.52;5.75;;;;;;;18.63;35.17;93729.97;4963317;28;20237;-64
2022/03/31 08:56:04;;;;;;;22.17;6.55;;;;;;;18.51;35.29;93744.13;4964249;28;20208;-65
2022/03/31 08:58:30;;;;;;;21.85;5.22;;;;;;;18.67;35.11;93741.78;4971247;28;20224;-65
2022/03/31 09:00:55;;;;;;;19.20;5.22;;;;;;;18.72;35.11;93721.41;4960888;28;20228;-63
2022/03/31 09:03:31;;;;;;;20.45;6.55;;;;;;;18.78;35.03;93734.88;4947740;28;20290;-64
2022/03/31 09:05:57;;;;;;;19.42;6.00;;;;;;;18.90;35.24;93733.81;4953592;28;20351;-64
2022/03/31 09:08:23;;;;;;;14.85;5.75;;;;;;;18.98;34.34;93718.50;4953660;28;20227;-64
2022/03/31 09:10:53;;;;;;;19.67;6.05;;;;;;;19.02;34.64;93732.97;4955528;28;20239;-65
2022/03/31 09:13:28;;;;;;;21.15;6.20;;;;;;;19.09;36.48;93725.69;4961121;28;20216;-63
2022/03/31 09:15:58;;;;;;;20.23;5.75;;;;;;;19.10;35.73;93732.63;4962048;28;20246;-63
2022/03/31 09:18:26;;;;;;;17.17;5.00;;;;;;;19.09;36.25;93747.78;4956407;28;20449;-63
2022/03/31 09:20:55;;;;;;;21.98;6.40;;;;;;;19.15;35.15;93730.06;4953975;28;20789;-64
2022/03/31 09:23:26;;;;;;;20.77;6.15;;;;;;;19.07;35.54;93723.22;4950501;28;20229;-65
2022/03/31 09:25:52;;;;;;;27.73;9.55;;;;;;;19.16;34.90;93737.00;4965081;28;20239;-64
2022/03/31 09:28:23;;;;;;;26.70;7.65;;;;;;;19.20;35.23;93734.69;4960928;28;20220;-65
2022/03/31 09:30:53;;;;;;;33.03;11.90;;;;;;;19.31;35.00;93705.31;4960067;28;20260;-64
2022/03/31 09:33:44;;;;;;;21.20;8.13;;;;;;;19.27;35.53;93712.19;4952775;28;20294;-67
2022/03/31 09:36:15;;;;;;;23.13;6.47;;;;;;;19.41;35.10;93701.25;4959763;28;20221;-66
2022/03/31 09:39:05;;;;;;;22.00;5.53;;;;;;;19.52;33.95;93703.03;4955411;28;20224;-66
2022/03/31 09:41:40;;;;;;;16.70;5.95;;;;;;;19.48;34.54;93705.34;4954052;28;20267;-66
2022/03/31 09:44:09;;;;;;;17.02;5.43;;;;;;;19.37;34.11;93675.03;4952960;28;20215;-66
2022/03/31 09:46:38;;;;;;;24.55;5.32;;;;;;;19.62;33.94;93665.91;4957146;28;20276;-66
2022/03/31 09:49:24;;;;;;;20.40;6.53;;;;;;;19.78;34.16;93658.97;4953478;28;20216;-66
2022/03/31 09:51:52;;;;;;;17.92;5.95;;;;;;;19.90;34.32;93699.72;4954031;28;20627;-64
2022/03/31 09:54:19;;;;;;;22.15;5.75;;;;;;;19.99;34.21;93711.63;4950787;28;20290;-64
2022/03/31 09:56:45;;;;;;;24.08;6.18;;;;;;;20.03;33.27;93693.28;4957378;28;20229;-69
2022/03/31 09:59:15;;;;;;;13.38;4.45;;;;;;;19.82;33.65;93690.25;4941196;28;20267;-65
2022/03/31 10:01:42;;;;;;;22.17;5.30;;;;;;;20.03;33.34;93694.06;4935248;28;20739;-69
2022/03/31 10:04:11;;;;;;;20.30;4.85;;;;;;;20.00;32.97;93705.25;4949420;28;20225;-68
2022/03/31 10:06:38;;;;;;;23.25;5.15;;;;;;;20.26;33.33;93698.44;4946498;28;20283;-68
2022/03/31 10:09:07;;;;;;;23.30;5.95;;;;;;;20.57;32.57;93672.22;4958248;28;20220;-70
2022/03/31 10:11:37;;;;;;;23.30;5.75;;;;;;;20.33;33.42;93694.78;4979944;28;20232;-70
2022/03/31 10:14:12;;;;;;;23.63;5.45;;;;;;;20.35;32.65;93679.34;4956156;28;20271;-68
2022/03/31 10:16:44;;;;;;;18.77;5.88;;;;;;;20.39;33.22;93693.81;4957179;28;20206;-68
2022/03/31 10:19:10;;;;;;;23.90;5.15;;;;;;;20.36;32.93;93659.59;4973107;28;20699;-69
2022/03/31 10:21:36;;;;;;;20.58;5.50;;;;;;;20.45;33.34;93652.81;4964954;28;20224;-68
2022/03/31 10:26:57;;;;;;;19.63;5.63;;;;;;;20.58;33.57;93651.66;4957811;28;20242;-68
2022/03/31 10:29:22;;;;;;;20.15;6.25;;;;;;;20.69;33.38;93651.56;4969558;28;20227;-66
2022/03/31 10:31:48;;;;;;;22.50;7.10;;;;;;;20.90;32.77;93649.94;4957319;28;20223;-65
2022/03/31 10:34:14;;;;;;;18.08;5.32;;;;;;;20.87;32.75;93662.97;4954526;28;20234;-68
2022/03/31 10:36:45;;;;;;;16.40;5.65;;;;;;;20.85;32.55;93633.03;4964776;28;20231;-69
2022/03/31 10:39:19;;;;;;;16.77;4.80;;;;;;;21.08;31.83;93648.81;4964745;28;20227;-69
2022/03/31 10:41:46;;;;;;;25.70;5.47;;;;;;;21.08;31.82;93648.81;4956109;28;20243;-69
2022/03/31 10:44:11;;;;;;;23.08;5.60;;;;;;;21.15;32.57;93614.69;4965474;28;20224;-68
2022/03/31 10:46:38;;;;;;;21.65;6.13;;;;;;;21.12;32.32;93631.22;4986868;28;20204;-69
2022/03/31 10:49:09;;;;;;;15.18;5.20;;;;;;;21.11;31.29;93621.56;4988777;28;20228;-69
2022/03/31 10:51:42;;;;;;;20.13;5.03;;;;;;;21.00;33.15;93638.56;4956884;28;20806;-69
2022/03/31 10:54:26;;;;;;;21.60;5.82;;;;;;;20.97;32.34;93607.00;4957631;28;20231;-65
2022/03/31 10:57:12;;;;;;;20.52;5.93;;;;;;;21.01;31.71;93624.16;4993203;28;20326;-66
2022/03/31 10:59:39;;;;;;;23.02;5.80;;;;;;;21.00;32.45;93643.91;4952778;28;20259;-66
2022/03/31 11:02:12;;;;;;;25.30;6.57;;;;;;;21.19;30.93;93622.19;4967880;28;20304;-65
2022/03/31 11:04:58;;;;;;;19.42;5.82;;;;;;;21.40;32.03;93631.25;4954246;28;20204;-65
2022/03/31 11:07:25;;;;;;;14.98;5.70;;;;;;;21.74;31.18;93605.91;4971481;28;20225;-67
2022/03/31 11:10:08;;;;;;;23.10;7.00;;;;;;;21.98;30.70;93622.41;4942736;28;20217;-66
2022/03/31 11:12:36;;;;;;;18.67;6.20;;;;;;;22.05;31.27;93599.97;4954807;28;20235;-65
2022/03/31 11:15:10;;;;;;;21.42;6.30;;;;;;;21.76;30.51;93643.91;4958084;28;20244;-65
2022/03/31 11:17:38;;;;;;;23.23;5.47;;;;;;;21.58;30.73;93607.63;4959504;28;20224;-65
2022/03/31 11:20:14;;;;;;;20.90;5.10;;;;;;;21.30;30.80;93627.41;4966512;28;20280;-65
2022/03/31 11:22:47;;;;;;;19.27;5.40;;;;;;;20.96;31.44;93604.59;4960672;28;20220;-68
2022/03/31 11:25:13;;;;;;;18.83;5.72;;;;;;;21.23;31.29;93613.44;4956058;28;20252;-66
2022/03/31 11:27:41;;;;;;;21.67;5.97;;;;;;;20.85;31.70;93604.47;4955056;28;20235;-68
2022/03/31 11:30:13;;;;;;;22.15;5.45;;;;;;;21.19;31.14;93635.56;4965506;28;20315;-67